sensor_id;sensor_type;location;lat;lon;timestamp;P1;durP1;ratioP1;P2;durP2;ratioP2
16731;SDS011;8484;50.904;9.192;2023-04-24T00:00:18;28.03;;;26.40;;
16731;SDS011;8484;50.904;9.192;2023-04-24T00:02:45;25.33;;;23.63;;
16731;SDS011;8484;50.904;9.192;2023-04-24T00:05:12;25.80;;;24.27;;
16731;SDS011;8484;50.904;9.192;2023-04-24T00:07:40;25.87;;;24.17;;
16731;SDS011;8484;50.904;9.192;2023-04-24T00:10:07;23.60;;;22.30;;
16731;SDS011;8484;50.904;9.192;2023-04-24T00:12:35;25.03;;;23.63;;
16731;SDS011;8484;50.904;9.192;2023-04-24T00:15:04;23.40;;;22.10;;
16731;SDS011;8484;50.904;9.192;2023-04-24T00:17:32;25.03;;;23.40;;
16731;SDS011;8484;50.904;9.192;2023-04-24T00:19:58;25.70;;;24.20;;
16731;SDS011;8484;50.904;9.192;2023-04-24T00:22:27;24.93;;;23.43;;
16731;SDS011;8484;50.904;9.192;2023-04-24T00:24:54;26.53;;;24.93;;
16731;SDS011;8484;50.904;9.192;2023-04-24T00:27:21;25.53;;;24.03;;
16731;SDS011;8484;50.904;9.192;2023-04-24T00:29:49;26.00;;;24.50;;
16731;SDS011;8484;50.904;9.192;2023-04-24T00:32:24;26.67;;;25.17;;
16731;SDS011;8484;50.904;9.192;2023-04-24T00:34:51;27.40;;;25.87;;
16731;SDS011;8484;50.904;9.192;2023-04-24T00:37:17;27.93;;;26.27;;
16731;SDS011;8484;50.904;9.192;2023-04-24T00:39:44;28.27;;;26.67;;
16731;SDS011;8484;50.904;9.192;2023-04-24T00:42:11;29.85;;;28.15;;
16731;SDS011;8484;50.904;9.192;2023-04-24T00:44:38;28.57;;;26.87;;
16731;SDS011;8484;50.904;9.192;2023-04-24T00:47:05;30.07;;;28.27;;
16731;SDS011;8484;50.904;9.192;2023-04-24T00:49:40;30.50;;;28.70;;
16731;SDS011;8484;50.904;9.192;2023-04-24T00:52:07;28.80;;;27.20;;
16731;SDS011;8484;50.904;9.192;2023-04-24T00:54:34;30.30;;;28.50;;
16731;SDS011;8484;50.904;9.192;2023-04-24T00:57:01;28.90;;;27.20;;
16731;SDS011;8484;50.904;9.192;2023-04-24T00:59:28;28.40;;;26.80;;
16731;SDS011;8484;50.904;9.192;2023-04-24T01:01:55;28.77;;;27.10;;
16731;SDS011;8484;50.904;9.192;2023-04-24T01:04:23;29.80;;;28.00;;
16731;SDS011;8484;50.904;9.192;2023-04-24T01:06:52;29.10;;;27.40;;
16731;SDS011;8484;50.904;9.192;2023-04-24T01:09:21;30.07;;;28.23;;
16731;SDS011;8484;50.904;9.192;2023-04-24T01:11:49;29.83;;;27.83;;
16731;SDS011;8484;50.904;9.192;2023-04-24T01:14:16;29.67;;;27.87;;
16731;SDS011;8484;50.904;9.192;2023-04-24T01:16:43;28.03;;;26.43;;
16731;SDS011;8484;50.904;9.192;2023-04-24T01:19:10;28.27;;;26.67;;
16731;SDS011;8484;50.904;9.192;2023-04-24T01:21:37;27.60;;;26.00;;
16731;SDS011;8484;50.904;9.192;2023-04-24T01:24:06;27.50;;;25.90;;
16731;SDS011;8484;50.904;9.192;2023-04-24T01:26:33;28.00;;;26.40;;
16731;SDS011;8484;50.904;9.192;2023-04-24T01:29:02;28.10;;;26.50;;
16731;SDS011;8484;50.904;9.192;2023-04-24T01:31:29;27.30;;;25.70;;
16731;SDS011;8484;50.904;9.192;2023-04-24T01:33:57;27.37;;;25.77;;
16731;SDS011;8484;50.904;9.192;2023-04-24T01:36:23;28.20;;;26.40;;
16731;SDS011;8484;50.904;9.192;2023-04-24T01:38:53;27.20;;;25.50;;
16731;SDS011;8484;50.904;9.192;2023-04-24T01:41:21;27.20;;;25.70;;
16731;SDS011;8484;50.904;9.192;2023-04-24T01:43:48;27.43;;;25.73;;
16731;SDS011;8484;50.904;9.192;2023-04-24T01:46:15;28.10;;;26.40;;
16731;SDS011;8484;50.904;9.192;2023-04-24T01:48:42;27.43;;;25.83;;
16731;SDS011;8484;50.904;9.192;2023-04-24T01:51:11;28.37;;;26.77;;
16731;SDS011;8484;50.904;9.192;2023-04-24T01:53:38;28.63;;;26.80;;
16731;SDS011;8484;50.904;9.192;2023-04-24T01:56:05;27.00;;;25.40;;
16731;SDS011;8484;50.904;9.192;2023-04-24T01:58:34;27.30;;;25.70;;
16731;SDS011;8484;50.904;9.192;2023-04-24T02:01:01;27.30;;;25.70;;
16731;SDS011;8484;50.904;9.192;2023-04-24T02:03:28;27.77;;;26.17;;
16731;SDS011;8484;50.904;9.192;2023-04-24T02:05:54;27.90;;;26.20;;
16731;SDS011;8484;50.904;9.192;2023-04-24T02:08:21;28.20;;;26.33;;
16731;SDS011;8484;50.904;9.192;2023-04-24T02:10:49;26.93;;;25.43;;
16731;SDS011;8484;50.904;9.192;2023-04-24T02:13:15;27.33;;;25.73;;
16731;SDS011;8484;50.904;9.192;2023-04-24T02:15:43;28.60;;;26.80;;
16731;SDS011;8484;50.904;9.192;2023-04-24T02:18:10;27.27;;;25.67;;
16731;SDS011;8484;50.904;9.192;2023-04-24T02:20:37;26.70;;;25.03;;
16731;SDS011;8484;50.904;9.192;2023-04-24T02:23:04;26.93;;;25.33;;
16731;SDS011;8484;50.904;9.192;2023-04-24T02:25:31;26.93;;;25.43;;
16731;SDS011;8484;50.904;9.192;2023-04-24T02:27:59;26.77;;;25.27;;
16731;SDS011;8484;50.904;9.192;2023-04-24T02:30:25;27.47;;;25.93;;
16731;SDS011;8484;50.904;9.192;2023-04-24T02:32:54;28.13;;;26.53;;
16731;SDS011;8484;50.904;9.192;2023-04-24T02:35:20;28.20;;;26.60;;
16731;SDS011;8484;50.904;9.192;2023-04-24T02:37:47;28.47;;;26.77;;
16731;SDS011;8484;50.904;9.192;2023-04-24T02:40:15;28.70;;;27.00;;
16731;SDS011;8484;50.904;9.192;2023-04-24T02:42:42;28.90;;;27.30;;
16731;SDS011;8484;50.904;9.192;2023-04-24T02:45:09;28.03;;;26.40;;
16731;SDS011;8484;50.904;9.192;2023-04-24T02:47:36;28.77;;;27.13;;
16731;SDS011;8484;50.904;9.192;2023-04-24T02:50:05;29.20;;;27.50;;
16731;SDS011;8484;50.904;9.192;2023-04-24T02:52:33;31.93;;;30.07;;
16731;SDS011;8484;50.904;9.192;2023-04-24T02:55:00;34.37;;;32.37;;
16731;SDS011;8484;50.904;9.192;2023-04-24T02:57:27;37.37;;;35.17;;
16731;SDS011;8484;50.904;9.192;2023-04-24T02:59:54;40.20;;;37.90;;
16731;SDS011;8484;50.904;9.192;2023-04-24T03:02:20;44.63;;;41.93;;
16731;SDS011;8484;50.904;9.192;2023-04-24T03:04:47;46.57;;;43.77;;
16731;SDS011;8484;50.904;9.192;2023-04-24T03:07:15;48.13;;;45.27;;
16731;SDS011;8484;50.904;9.192;2023-04-24T03:09:45;48.77;;;45.87;;
16731;SDS011;8484;50.904;9.192;2023-04-24T03:12:12;48.77;;;45.87;;
16731;SDS011;8484;50.904;9.192;2023-04-24T03:14:39;49.73;;;46.77;;
16731;SDS011;8484;50.904;9.192;2023-04-24T03:17:06;50.80;;;47.87;;
16731;SDS011;8484;50.904;9.192;2023-04-24T03:19:33;50.40;;;47.40;;
16731;SDS011;8484;50.904;9.192;2023-04-24T03:22:01;51.20;;;48.20;;
16731;SDS011;8484;50.904;9.192;2023-04-24T03:24:29;52.77;;;49.70;;
16731;SDS011;8484;50.904;9.192;2023-04-24T03:26:56;51.93;;;48.93;;
16731;SDS011;8484;50.904;9.192;2023-04-24T03:29:23;51.23;;;48.23;;
16731;SDS011;8484;50.904;9.192;2023-04-24T03:31:50;51.87;;;48.87;;
16731;SDS011;8484;50.904;9.192;2023-04-24T03:34:18;51.60;;;48.60;;
16731;SDS011;8484;50.904;9.192;2023-04-24T03:36:45;51.33;;;48.23;;
16731;SDS011;8484;50.904;9.192;2023-04-24T03:39:13;52.73;;;49.53;;
16731;SDS011;8484;50.904;9.192;2023-04-24T03:41:41;52.90;;;49.83;;
16731;SDS011;8484;50.904;9.192;2023-04-24T03:44:08;53.47;;;50.37;;
16731;SDS011;8484;50.904;9.192;2023-04-24T03:46:35;52.37;;;49.17;;
16731;SDS011;8484;50.904;9.192;2023-04-24T03:49:02;54.13;;;50.93;;
16731;SDS011;8484;50.904;9.192;2023-04-24T03:51:29;55.83;;;52.53;;
16731;SDS011;8484;50.904;9.192;2023-04-24T03:53:56;54.20;;;51.00;;
16731;SDS011;8484;50.904;9.192;2023-04-24T03:56:23;54.33;;;51.10;;
16731;SDS011;8484;50.904;9.192;2023-04-24T03:58:51;55.03;;;51.83;;
16731;SDS011;8484;50.904;9.192;2023-04-24T04:01:23;55.43;;;52.23;;
16731;SDS011;8484;50.904;9.192;2023-04-24T04:03:50;55.60;;;52.40;;
16731;SDS011;8484;50.904;9.192;2023-04-24T04:06:18;55.23;;;52.03;;
16731;SDS011;8484;50.904;9.192;2023-04-24T04:08:46;55.20;;;51.87;;
16731;SDS011;8484;50.904;9.192;2023-04-24T04:11:13;55.17;;;51.97;;
16731;SDS011;8484;50.904;9.192;2023-04-24T04:13:40;54.87;;;51.67;;
16731;SDS011;8484;50.904;9.192;2023-04-24T04:16:09;56.70;;;53.37;;
16731;SDS011;8484;50.904;9.192;2023-04-24T04:18:36;57.10;;;53.70;;
16731;SDS011;8484;50.904;9.192;2023-04-24T04:21:03;57.67;;;54.17;;
16731;SDS011;8484;50.904;9.192;2023-04-24T04:23:30;56.80;;;53.50;;
16731;SDS011;8484;50.904;9.192;2023-04-24T04:25:57;56.80;;;53.43;;
16731;SDS011;8484;50.904;9.192;2023-04-24T04:28:24;56.50;;;53.20;;
16731;SDS011;8484;50.904;9.192;2023-04-24T04:30:51;56.07;;;52.77;;
16731;SDS011;8484;50.904;9.192;2023-04-24T04:33:21;56.50;;;53.20;;
16731;SDS011;8484;50.904;9.192;2023-04-24T04:35:48;53.10;;;50.00;;
16731;SDS011;8484;50.904;9.192;2023-04-24T04:38:17;50.77;;;47.80;;
16731;SDS011;8484;50.904;9.192;2023-04-24T04:40:44;54.03;;;50.83;;
16731;SDS011;8484;50.904;9.192;2023-04-24T04:43:12;51.10;;;48.10;;
16731;SDS011;8484;50.904;9.192;2023-04-24T04:45:40;52.27;;;49.27;;
16731;SDS011;8484;50.904;9.192;2023-04-24T04:48:08;51.20;;;48.10;;
16731;SDS011;8484;50.904;9.192;2023-04-24T04:50:39;50.57;;;47.63;;
16731;SDS011;8484;50.904;9.192;2023-04-24T04:53:05;48.77;;;45.87;;
16731;SDS011;8484;50.904;9.192;2023-04-24T04:55:32;48.50;;;45.70;;
16731;SDS011;8484;50.904;9.192;2023-04-24T04:58:00;45.90;;;43.20;;
16731;SDS011;8484;50.904;9.192;2023-04-24T05:00:26;45.67;;;42.97;;
16731;SDS011;8484;50.904;9.192;2023-04-24T05:02:54;41.30;;;38.90;;
16731;SDS011;8484;50.904;9.192;2023-04-24T05:05:21;41.33;;;38.90;;
16731;SDS011;8484;50.904;9.192;2023-04-24T05:07:49;40.03;;;37.73;;
16731;SDS011;8484;50.904;9.192;2023-04-24T05:10:16;37.87;;;35.77;;
16731;SDS011;8484;50.904;9.192;2023-04-24T05:12:42;37.73;;;35.53;;
16731;SDS011;8484;50.904;9.192;2023-04-24T05:15:09;36.03;;;34.00;;
16731;SDS011;8484;50.904;9.192;2023-04-24T05:17:37;35.73;;;33.53;;
16731;SDS011;8484;50.904;9.192;2023-04-24T05:20:05;37.03;;;34.93;;
16731;SDS011;8484;50.904;9.192;2023-04-24T05:22:33;36.10;;;34.00;;
16731;SDS011;8484;50.904;9.192;2023-04-24T05:25:01;34.57;;;32.57;;
16731;SDS011;8484;50.904;9.192;2023-04-24T05:27:28;33.53;;;31.63;;
16731;SDS011;8484;50.904;9.192;2023-04-24T05:29:55;31.83;;;29.93;;
16731;SDS011;8484;50.904;9.192;2023-04-24T05:32:21;32.60;;;30.70;;
16731;SDS011;8484;50.904;9.192;2023-04-24T05:34:48;31.87;;;30.07;;
16731;SDS011;8484;50.904;9.192;2023-04-24T05:37:15;29.40;;;27.70;;
16731;SDS011;8484;50.904;9.192;2023-04-24T05:39:42;29.50;;;27.80;;
16731;SDS011;8484;50.904;9.192;2023-04-24T05:42:10;27.27;;;25.77;;
16731;SDS011;8484;50.904;9.192;2023-04-24T05:44:37;25.40;;;23.90;;
16731;SDS011;8484;50.904;9.192;2023-04-24T05:47:04;24.70;;;23.30;;
16731;SDS011;8484;50.904;9.192;2023-04-24T05:49:31;22.67;;;21.30;;
16731;SDS011;8484;50.904;9.192;2023-04-24T05:51:58;21.37;;;20.17;;
16731;SDS011;8484;50.904;9.192;2023-04-24T05:54:25;20.20;;;19.10;;
16731;SDS011;8484;50.904;9.192;2023-04-24T05:56:52;19.13;;;18.03;;
16731;SDS011;8484;50.904;9.192;2023-04-24T05:59:21;18.70;;;17.67;;
16731;SDS011;8484;50.904;9.192;2023-04-24T06:01:48;17.73;;;16.73;;
16731;SDS011;8484;50.904;9.192;2023-04-24T06:04:15;17.13;;;16.13;;
16731;SDS011;8484;50.904;9.192;2023-04-24T06:06:42;16.17;;;15.17;;
16731;SDS011;8484;50.904;9.192;2023-04-24T06:09:09;15.70;;;14.80;;
16731;SDS011;8484;50.904;9.192;2023-04-24T06:11:37;16.97;;;15.97;;
16731;SDS011;8484;50.904;9.192;2023-04-24T06:14:03;14.60;;;13.70;;
16731;SDS011;8484;50.904;9.192;2023-04-24T06:16:31;15.43;;;14.53;;
16731;SDS011;8484;50.904;9.192;2023-04-24T06:18:58;14.77;;;13.60;;
16731;SDS011;8484;50.904;9.192;2023-04-24T06:21:25;15.87;;;14.97;;
16731;SDS011;8484;50.904;9.192;2023-04-24T06:23:52;16.03;;;14.73;;
16731;SDS011;8484;50.904;9.192;2023-04-24T06:26:21;14.90;;;14.00;;
16731;SDS011;8484;50.904;9.192;2023-04-24T06:28:50;14.63;;;13.83;;
16731;SDS011;8484;50.904;9.192;2023-04-24T06:31:16;14.73;;;13.83;;
16731;SDS011;8484;50.904;9.192;2023-04-24T06:33:44;13.57;;;12.77;;
16731;SDS011;8484;50.904;9.192;2023-04-24T06:36:11;12.23;;;11.53;;
16731;SDS011;8484;50.904;9.192;2023-04-24T06:38:38;13.03;;;12.30;;
16731;SDS011;8484;50.904;9.192;2023-04-24T06:41:05;13.83;;;13.03;;
16731;SDS011;8484;50.904;9.192;2023-04-24T06:43:32;13.13;;;12.33;;
16731;SDS011;8484;50.904;9.192;2023-04-24T06:45:59;13.40;;;12.30;;
16731;SDS011;8484;50.904;9.192;2023-04-24T06:48:28;12.90;;;12.20;;
16731;SDS011;8484;50.904;9.192;2023-04-24T06:50:56;13.30;;;12.57;;
16731;SDS011;8484;50.904;9.192;2023-04-24T06:53:23;12.97;;;12.27;;
16731;SDS011;8484;50.904;9.192;2023-04-24T06:55:50;12.37;;;11.60;;
16731;SDS011;8484;50.904;9.192;2023-04-24T06:58:17;12.53;;;11.83;;
16731;SDS011;8484;50.904;9.192;2023-04-24T07:00:44;12.67;;;11.97;;
16731;SDS011;8484;50.904;9.192;2023-04-24T07:03:11;12.70;;;12.00;;
16731;SDS011;8484;50.904;9.192;2023-04-24T07:05:38;13.70;;;12.90;;
16731;SDS011;8484;50.904;9.192;2023-04-24T07:08:08;11.90;;;11.03;;
16731;SDS011;8484;50.904;9.192;2023-04-24T07:10:36;12.03;;;11.27;;
16731;SDS011;8484;50.904;9.192;2023-04-24T07:13:03;11.30;;;10.60;;
16731;SDS011;8484;50.904;9.192;2023-04-24T07:15:32;12.80;;;12.00;;
16731;SDS011;8484;50.904;9.192;2023-04-24T07:17:59;11.93;;;11.23;;
16731;SDS011;8484;50.904;9.192;2023-04-24T07:20:26;10.23;;;9.63;;
16731;SDS011;8484;50.904;9.192;2023-04-24T07:22:53;10.97;;;10.30;;
16731;SDS011;8484;50.904;9.192;2023-04-24T07:25:21;11.30;;;10.60;;
16731;SDS011;8484;50.904;9.192;2023-04-24T07:27:48;11.30;;;10.60;;
16731;SDS011;8484;50.904;9.192;2023-04-24T07:30:15;10.83;;;10.13;;
16731;SDS011;8484;50.904;9.192;2023-04-24T07:32:42;11.27;;;10.57;;
16731;SDS011;8484;50.904;9.192;2023-04-24T07:35:09;11.60;;;10.90;;
16731;SDS011;8484;50.904;9.192;2023-04-24T07:37:36;11.67;;;10.97;;
16731;SDS011;8484;50.904;9.192;2023-04-24T07:40:03;11.60;;;10.80;;
16731;SDS011;8484;50.904;9.192;2023-04-24T07:42:31;12.30;;;11.57;;
16731;SDS011;8484;50.904;9.192;2023-04-24T07:44:59;12.50;;;11.70;;
16731;SDS011;8484;50.904;9.192;2023-04-24T07:47:26;12.00;;;11.30;;
16731;SDS011;8484;50.904;9.192;2023-04-24T07:49:54;10.40;;;9.70;;
16731;SDS011;8484;50.904;9.192;2023-04-24T07:52:20;10.20;;;9.60;;
16731;SDS011;8484;50.904;9.192;2023-04-24T07:54:47;9.87;;;9.27;;
16731;SDS011;8484;50.904;9.192;2023-04-24T07:57:14;9.57;;;9.00;;
16731;SDS011;8484;50.904;9.192;2023-04-24T07:59:43;12.67;;;11.87;;
16731;SDS011;8484;50.904;9.192;2023-04-24T08:02:10;9.40;;;8.80;;
16731;SDS011;8484;50.904;9.192;2023-04-24T08:04:37;12.37;;;11.33;;
16731;SDS011;8484;50.904;9.192;2023-04-24T08:07:03;11.00;;;10.40;;
16731;SDS011;8484;50.904;9.192;2023-04-24T08:09:30;10.53;;;9.83;;
16731;SDS011;8484;50.904;9.192;2023-04-24T08:11:57;9.33;;;8.73;;
16731;SDS011;8484;50.904;9.192;2023-04-24T08:14:24;12.67;;;11.87;;
16731;SDS011;8484;50.904;9.192;2023-04-24T08:16:53;11.13;;;10.50;;
16731;SDS011;8484;50.904;9.192;2023-04-24T08:19:21;9.30;;;8.80;;
16731;SDS011;8484;50.904;9.192;2023-04-24T08:21:47;10.37;;;9.60;;
16731;SDS011;8484;50.904;9.192;2023-04-24T08:24:14;11.70;;;11.00;;
16731;SDS011;8484;50.904;9.192;2023-04-24T08:26:41;10.13;;;9.53;;
16731;SDS011;8484;50.904;9.192;2023-04-24T08:29:08;9.67;;;8.97;;
16731;SDS011;8484;50.904;9.192;2023-04-24T08:31:35;9.80;;;9.20;;
16731;SDS011;8484;50.904;9.192;2023-04-24T08:34:03;8.97;;;8.40;;
16731;SDS011;8484;50.904;9.192;2023-04-24T08:36:30;10.40;;;9.80;;
16731;SDS011;8484;50.904;9.192;2023-04-24T08:38:58;10.07;;;9.37;;
16731;SDS011;8484;50.904;9.192;2023-04-24T08:41:26;9.87;;;9.27;;
16731;SDS011;8484;50.904;9.192;2023-04-24T08:43:53;10.73;;;10.03;;
16731;SDS011;8484;50.904;9.192;2023-04-24T08:46:23;9.43;;;8.83;;
16731;SDS011;8484;50.904;9.192;2023-04-24T08:48:51;9.20;;;8.60;;
16731;SDS011;8484;50.904;9.192;2023-04-24T08:51:20;9.87;;;9.17;;
16731;SDS011;8484;50.904;9.192;2023-04-24T08:53:47;9.77;;;9.17;;
16731;SDS011;8484;50.904;9.192;2023-04-24T08:56:15;10.30;;;9.60;;
16731;SDS011;8484;50.904;9.192;2023-04-24T08:58:43;10.20;;;9.60;;
16731;SDS011;8484;50.904;9.192;2023-04-24T09:01:10;9.77;;;9.17;;
16731;SDS011;8484;50.904;9.192;2023-04-24T09:03:38;9.60;;;9.00;;
16731;SDS011;8484;50.904;9.192;2023-04-24T09:06:05;10.03;;;9.33;;
16731;SDS011;8484;50.904;9.192;2023-04-24T09:08:35;10.23;;;9.43;;
16731;SDS011;8484;50.904;9.192;2023-04-24T09:11:02;9.97;;;9.43;;
16731;SDS011;8484;50.904;9.192;2023-04-24T09:13:30;9.70;;;8.90;;
16731;SDS011;8484;50.904;9.192;2023-04-24T09:15:58;9.40;;;8.80;;
16731;SDS011;8484;50.904;9.192;2023-04-24T09:18:25;9.90;;;9.30;;
16731;SDS011;8484;50.904;9.192;2023-04-24T09:21:00;9.40;;;8.90;;
16731;SDS011;8484;50.904;9.192;2023-04-24T09:23:28;10.17;;;9.57;;
16731;SDS011;8484;50.904;9.192;2023-04-24T09:25:57;11.07;;;10.47;;
16731;SDS011;8484;50.904;9.192;2023-04-24T09:28:25;9.67;;;9.07;;
16731;SDS011;8484;50.904;9.192;2023-04-24T09:31:01;9.60;;;9.10;;
16731;SDS011;8484;50.904;9.192;2023-04-24T09:33:29;9.83;;;9.23;;
16731;SDS011;8484;50.904;9.192;2023-04-24T09:35:56;9.47;;;8.97;;
16731;SDS011;8484;50.904;9.192;2023-04-24T09:38:30;10.20;;;9.60;;
16731;SDS011;8484;50.904;9.192;2023-04-24T09:41:00;10.30;;;9.70;;
16731;SDS011;8484;50.904;9.192;2023-04-24T09:43:28;10.77;;;10.07;;
16731;SDS011;8484;50.904;9.192;2023-04-24T09:45:56;10.17;;;9.57;;
16731;SDS011;8484;50.904;9.192;2023-04-24T09:48:30;10.13;;;9.53;;
16731;SDS011;8484;50.904;9.192;2023-04-24T09:50:58;9.40;;;8.70;;
16731;SDS011;8484;50.904;9.192;2023-04-24T09:53:26;10.33;;;9.57;;
16731;SDS011;8484;50.904;9.192;2023-04-24T09:55:53;10.43;;;9.63;;
16731;SDS011;8484;50.904;9.192;2023-04-24T09:58:25;9.80;;;9.30;;
16731;SDS011;8484;50.904;9.192;2023-04-24T10:00:53;9.47;;;8.90;;
16731;SDS011;8484;50.904;9.192;2023-04-24T10:03:24;9.73;;;9.00;;
16731;SDS011;8484;50.904;9.192;2023-04-24T10:05:53;7.70;;;7.30;;
16731;SDS011;8484;50.904;9.192;2023-04-24T10:08:20;8.47;;;7.97;;
16731;SDS011;8484;50.904;9.192;2023-04-24T10:10:48;8.53;;;7.80;;
16731;SDS011;8484;50.904;9.192;2023-04-24T10:13:15;13.23;;;12.43;;
16731;SDS011;8484;50.904;9.192;2023-04-24T10:15:43;9.33;;;8.83;;
16731;SDS011;8484;50.904;9.192;2023-04-24T10:18:12;9.57;;;8.73;;
16731;SDS011;8484;50.904;9.192;2023-04-24T10:20:39;9.97;;;9.40;;
16731;SDS011;8484;50.904;9.192;2023-04-24T10:23:07;10.47;;;9.87;;
16731;SDS011;8484;50.904;9.192;2023-04-24T10:25:34;10.73;;;10.13;;
16731;SDS011;8484;50.904;9.192;2023-04-24T10:28:03;11.20;;;10.50;;
16731;SDS011;8484;50.904;9.192;2023-04-24T10:30:31;10.90;;;10.30;;
16731;SDS011;8484;50.904;9.192;2023-04-24T10:33:02;12.20;;;11.50;;
16731;SDS011;8484;50.904;9.192;2023-04-24T10:35:30;12.00;;;11.30;;
16731;SDS011;8484;50.904;9.192;2023-04-24T10:37:59;12.83;;;12.03;;
16731;SDS011;8484;50.904;9.192;2023-04-24T10:40:30;13.70;;;12.90;;
16731;SDS011;8484;50.904;9.192;2023-04-24T10:42:58;13.20;;;12.50;;
16731;SDS011;8484;50.904;9.192;2023-04-24T10:45:25;13.90;;;13.10;;
16731;SDS011;8484;50.904;9.192;2023-04-24T10:47:53;13.80;;;13.00;;
16731;SDS011;8484;50.904;9.192;2023-04-24T10:50:27;14.60;;;13.80;;
16731;SDS011;8484;50.904;9.192;2023-04-24T10:53:05;17.30;;;16.30;;
16731;SDS011;8484;50.904;9.192;2023-04-24T10:55:39;16.93;;;16.03;;
16731;SDS011;8484;50.904;9.192;2023-04-24T10:58:07;17.73;;;16.73;;
16731;SDS011;8484;50.904;9.192;2023-04-24T11:00:36;16.83;;;15.90;;
16731;SDS011;8484;50.904;9.192;2023-04-24T11:03:04;15.57;;;14.57;;
16731;SDS011;8484;50.904;9.192;2023-04-24T11:08:21;16.00;;;15.10;;
16731;SDS011;8484;50.904;9.192;2023-04-24T11:11:03;16.77;;;15.77;;
16731;SDS011;8484;50.904;9.192;2023-04-24T11:16:28;15.90;;;15.00;;
16731;SDS011;8484;50.904;9.192;2023-04-24T11:19:01;16.17;;;15.17;;
16731;SDS011;8484;50.904;9.192;2023-04-24T11:21:32;15.00;;;14.20;;
16731;SDS011;8484;50.904;9.192;2023-04-24T11:24:23;14.53;;;13.73;;
16731;SDS011;8484;50.904;9.192;2023-04-24T11:26:57;13.60;;;12.90;;
16731;SDS011;8484;50.904;9.192;2023-04-24T11:29:41;12.03;;;11.23;;
16731;SDS011;8484;50.904;9.192;2023-04-24T11:32:16;11.07;;;10.47;;
16731;SDS011;8484;50.904;9.192;2023-04-24T11:34:48;10.40;;;9.87;;
16731;SDS011;8484;50.904;9.192;2023-04-24T11:37:17;11.63;;;10.97;;
16731;SDS011;8484;50.904;9.192;2023-04-24T11:39:44;9.40;;;8.90;;
16731;SDS011;8484;50.904;9.192;2023-04-24T11:42:13;9.80;;;9.30;;
16731;SDS011;8484;50.904;9.192;2023-04-24T11:44:41;9.57;;;9.07;;
16731;SDS011;8484;50.904;9.192;2023-04-24T11:47:08;10.07;;;9.57;;
16731;SDS011;8484;50.904;9.192;2023-04-24T11:49:36;9.17;;;8.67;;
16731;SDS011;8484;50.904;9.192;2023-04-24T11:52:03;9.33;;;8.83;;
16731;SDS011;8484;50.904;9.192;2023-04-24T11:54:32;8.70;;;8.27;;
16731;SDS011;8484;50.904;9.192;2023-04-24T11:56:59;9.50;;;9.00;;
16731;SDS011;8484;50.904;9.192;2023-04-24T11:59:29;8.07;;;7.67;;
16731;SDS011;8484;50.904;9.192;2023-04-24T12:02:01;8.80;;;8.30;;
16731;SDS011;8484;50.904;9.192;2023-04-24T12:04:37;8.17;;;7.73;;
16731;SDS011;8484;50.904;9.192;2023-04-24T12:07:05;9.83;;;9.33;;
16731;SDS011;8484;50.904;9.192;2023-04-24T12:09:45;8.53;;;8.13;;
16731;SDS011;8484;50.904;9.192;2023-04-24T12:12:12;8.23;;;7.83;;
16731;SDS011;8484;50.904;9.192;2023-04-24T12:14:47;8.97;;;8.47;;
16731;SDS011;8484;50.904;9.192;2023-04-24T12:17:15;8.17;;;7.63;;
16731;SDS011;8484;50.904;9.192;2023-04-24T12:19:45;8.43;;;8.03;;
16731;SDS011;8484;50.904;9.192;2023-04-24T12:22:13;8.60;;;8.20;;
16731;SDS011;8484;50.904;9.192;2023-04-24T12:24:58;8.87;;;8.37;;
16731;SDS011;8484;50.904;9.192;2023-04-24T12:27:28;9.27;;;8.77;;
16731;SDS011;8484;50.904;9.192;2023-04-24T12:29:56;8.40;;;7.90;;
16731;SDS011;8484;50.904;9.192;2023-04-24T12:32:24;8.70;;;8.20;;
16731;SDS011;8484;50.904;9.192;2023-04-24T12:34:52;8.73;;;8.23;;
16731;SDS011;8484;50.904;9.192;2023-04-24T12:37:19;8.93;;;8.43;;
16731;SDS011;8484;50.904;9.192;2023-04-24T12:40:02;8.57;;;8.17;;
16731;SDS011;8484;50.904;9.192;2023-04-24T12:42:32;8.57;;;8.17;;
16731;SDS011;8484;50.904;9.192;2023-04-24T12:45:01;8.50;;;8.10;;
16731;SDS011;8484;50.904;9.192;2023-04-24T12:47:30;8.30;;;7.90;;
16731;SDS011;8484;50.904;9.192;2023-04-24T12:49:58;9.00;;;8.50;;
16731;SDS011;8484;50.904;9.192;2023-04-24T12:52:25;8.87;;;8.37;;
16731;SDS011;8484;50.904;9.192;2023-04-24T12:54:53;9.10;;;8.60;;
16731;SDS011;8484;50.904;9.192;2023-04-24T12:57:23;9.10;;;8.60;;
16731;SDS011;8484;50.904;9.192;2023-04-24T12:59:52;8.93;;;8.43;;
16731;SDS011;8484;50.904;9.192;2023-04-24T13:02:19;8.50;;;8.00;;
16731;SDS011;8484;50.904;9.192;2023-04-24T13:04:47;8.80;;;8.30;;
16731;SDS011;8484;50.904;9.192;2023-04-24T13:07:14;8.50;;;8.10;;
16731;SDS011;8484;50.904;9.192;2023-04-24T13:09:41;8.30;;;7.80;;
16731;SDS011;8484;50.904;9.192;2023-04-24T13:12:09;9.07;;;8.57;;
16731;SDS011;8484;50.904;9.192;2023-04-24T13:14:38;8.97;;;8.47;;
16731;SDS011;8484;50.904;9.192;2023-04-24T13:17:05;8.90;;;8.40;;
16731;SDS011;8484;50.904;9.192;2023-04-24T13:19:35;9.40;;;8.90;;
16731;SDS011;8484;50.904;9.192;2023-04-24T13:22:04;9.07;;;8.47;;
16731;SDS011;8484;50.904;9.192;2023-04-24T13:24:32;9.00;;;8.50;;
16731;SDS011;8484;50.904;9.192;2023-04-24T13:26:59;9.37;;;8.87;;
16731;SDS011;8484;50.904;9.192;2023-04-24T13:29:30;9.20;;;8.70;;
16731;SDS011;8484;50.904;9.192;2023-04-24T13:31:58;9.17;;;8.67;;
16731;SDS011;8484;50.904;9.192;2023-04-24T13:34:26;9.63;;;9.13;;
16731;SDS011;8484;50.904;9.192;2023-04-24T13:36:54;9.30;;;8.70;;
16731;SDS011;8484;50.904;9.192;2023-04-24T13:39:23;9.23;;;8.73;;
16731;SDS011;8484;50.904;9.192;2023-04-24T13:41:50;9.03;;;8.10;;
16731;SDS011;8484;50.904;9.192;2023-04-24T13:44:18;8.70;;;8.20;;
16731;SDS011;8484;50.904;9.192;2023-04-24T13:46:47;8.70;;;8.20;;
16731;SDS011;8484;50.904;9.192;2023-04-24T13:49:17;9.43;;;8.83;;
16731;SDS011;8484;50.904;9.192;2023-04-24T13:51:45;8.67;;;8.17;;
16731;SDS011;8484;50.904;9.192;2023-04-24T13:54:12;8.53;;;8.03;;
16731;SDS011;8484;50.904;9.192;2023-04-24T13:56:39;9.20;;;8.70;;
16731;SDS011;8484;50.904;9.192;2023-04-24T13:59:06;9.03;;;8.43;;
16731;SDS011;8484;50.904;9.192;2023-04-24T14:01:33;9.60;;;9.10;;
16731;SDS011;8484;50.904;9.192;2023-04-24T14:04:02;10.63;;;10.03;;
16731;SDS011;8484;50.904;9.192;2023-04-24T14:06:30;9.67;;;9.00;;
16731;SDS011;8484;50.904;9.192;2023-04-24T14:08:57;10.53;;;9.83;;
16731;SDS011;8484;50.904;9.192;2023-04-24T14:11:25;9.10;;;8.50;;
16731;SDS011;8484;50.904;9.192;2023-04-24T14:13:54;9.43;;;8.83;;
16731;SDS011;8484;50.904;9.192;2023-04-24T14:16:22;9.87;;;9.27;;
16731;SDS011;8484;50.904;9.192;2023-04-24T14:18:49;10.40;;;9.80;;
16731;SDS011;8484;50.904;9.192;2023-04-24T14:21:16;10.30;;;9.70;;
16731;SDS011;8484;50.904;9.192;2023-04-24T14:23:45;10.60;;;10.00;;
16731;SDS011;8484;50.904;9.192;2023-04-24T14:26:11;10.63;;;9.93;;
16731;SDS011;8484;50.904;9.192;2023-04-24T14:28:39;10.40;;;9.80;;
16731;SDS011;8484;50.904;9.192;2023-04-24T14:31:05;9.70;;;9.20;;
16731;SDS011;8484;50.904;9.192;2023-04-24T14:33:33;9.90;;;9.33;;
16731;SDS011;8484;50.904;9.192;2023-04-24T14:35:59;10.07;;;9.47;;
16731;SDS011;8484;50.904;9.192;2023-04-24T14:38:27;10.00;;;9.40;;
16731;SDS011;8484;50.904;9.192;2023-04-24T14:40:56;9.97;;;9.37;;
16731;SDS011;8484;50.904;9.192;2023-04-24T14:43:23;10.70;;;10.10;;
16731;SDS011;8484;50.904;9.192;2023-04-24T14:45:50;10.63;;;9.93;;
16731;SDS011;8484;50.904;9.192;2023-04-24T14:48:18;10.00;;;9.30;;
16731;SDS011;8484;50.904;9.192;2023-04-24T14:50:45;9.83;;;9.23;;
16731;SDS011;8484;50.904;9.192;2023-04-24T14:53:12;9.57;;;8.97;;